sensor_id;sensor_type;location;lat;lon;timestamp;pressure;altitude;pressure_sealevel;temperature;humidity
60852;BME280;48553;50.766;2.900;2024-02-04T00:00:15;101991.03;;;9.52;100.00
60852;BME280;48553;50.766;2.900;2024-02-04T00:03:18;101994.84;;;9.51;100.00
60852;BME280;48553;50.766;2.900;2024-02-04T00:06:19;101999.00;;;9.49;100.00
60852;BME280;48553;50.766;2.900;2024-02-04T00:09:20;102001.97;;;9.52;100.00
60852;BME280;48553;50.766;2.900;2024-02-04T00:12:20;101995.69;;;9.52;100.00
60852;BME280;48553;50.766;2.900;2024-02-04T00:15:21;102000.31;;;9.51;100.00
60852;BME280;48553;50.766;2.900;2024-02-04T00:18:22;101992.94;;;9.52;100.00
60852;BME280;48553;50.766;2.900;2024-02-04T00:21:22;101997.31;;;9.53;100.00
60852;BME280;48553;50.766;2.900;2024-02-04T00:24:23;102000.03;;;9.53;100.00
60852;BME280;48553;50.766;2.900;2024-02-04T00:27:24;101995.38;;;9.53;100.00
60852;BME280;48553;50.766;2.900;2024-02-04T00:30:24;101994.56;;;9.53;100.00
60852;BME280;48553;50.766;2.900;2024-02-04T00:33:26;101978.44;;;9.51;100.00
60852;BME280;48553;50.766;2.900;2024-02-04T00:36:27;101986.34;;;9.53;100.00
60852;BME280;48553;50.766;2.900;2024-02-04T00:39:27;101979.25;;;9.52;100.00
60852;BME280;48553;50.766;2.900;2024-02-04T00:42:27;101982.59;;;9.49;100.00
60852;BME280;48553;50.766;2.900;2024-02-04T00:45:28;101980.34;;;9.51;100.00
60852;BME280;48553;50.766;2.900;2024-02-04T00:48:28;101974.59;;;9.52;100.00
60852;BME280;48553;50.766;2.900;2024-02-04T00:51:29;101977.34;;;9.52;100.00
60852;BME280;48553;50.766;2.900;2024-02-04T00:54:29;101955.16;;;9.54;100.00
60852;BME280;48553;50.766;2.900;2024-02-04T00:57:30;101957.06;;;9.53;100.00
60852;BME280;48553;50.766;2.900;2024-02-04T01:00:30;101961.72;;;9.53;100.00
60852;BME280;48553;50.766;2.900;2024-02-04T01:03:31;101954.31;;;9.53;100.00
60852;BME280;48553;50.766;2.900;2024-02-04T01:06:31;101958.47;;;9.51;100.00
60852;BME280;48553;50.766;2.900;2024-02-04T01:09:32;101946.44;;;9.52;100.00
60852;BME280;48553;50.766;2.900;2024-02-04T01:12:32;101947.53;;;9.51;100.00
60852;BME280;48553;50.766;2.900;2024-02-04T01:15:33;101951.97;;;9.47;100.00
60852;BME280;48553;50.766;2.900;2024-02-04T01:18:33;101958.28;;;9.47;100.00
60852;BME280;48553;50.766;2.900;2024-02-04T01:21:34;101955.72;;;9.51;100.00
60852;BME280;48553;50.766;2.900;2024-02-04T01:24:34;101951.38;;;9.50;100.00
60852;BME280;48553;50.766;2.900;2024-02-04T01:27:35;101955.22;;;9.49;100.00
60852;BME280;48553;50.766;2.900;2024-02-04T01:30:35;101958.78;;;9.49;100.00
60852;BME280;48553;50.766;2.900;2024-02-04T01:33:37;101943.47;;;9.48;100.00
60852;BME280;48553;50.766;2.900;2024-02-04T01:36:37;101945.41;;;9.48;100.00
60852;BME280;48553;50.766;2.900;2024-02-04T01:39:38;101943.97;;;9.50;100.00
60852;BME280;48553;50.766;2.900;2024-02-04T01:42:38;101941.84;;;9.47;100.00
60852;BME280;48553;50.766;2.900;2024-02-04T01:45:38;101936.91;;;9.49;100.00
60852;BME280;48553;50.766;2.900;2024-02-04T01:48:39;101938.50;;;9.50;100.00
60852;BME280;48553;50.766;2.900;2024-02-04T01:51:40;101939.63;;;9.49;100.00
60852;BME280;48553;50.766;2.900;2024-02-04T01:54:41;101931.41;;;9.49;100.00
60852;BME280;48553;50.766;2.900;2024-02-04T01:57:42;101925.44;;;9.47;100.00
60852;BME280;48553;50.766;2.900;2024-02-04T02:00:44;101919.34;;;9.50;100.00
60852;BME280;48553;50.766;2.900;2024-02-04T02:03:45;101923.22;;;9.49;100.00
60852;BME280;48553;50.766;2.900;2024-02-04T02:06:46;101931.09;;;9.51;100.00
60852;BME280;48553;50.766;2.900;2024-02-04T02:09:47;101934.44;;;9.48;100.00
60852;BME280;48553;50.766;2.900;2024-02-04T02:12:55;101944.28;;;9.49;100.00
60852;BME280;48553;50.766;2.900;2024-02-04T02:16:07;101953.00;;;9.51;100.00
60852;BME280;48553;50.766;2.900;2024-02-04T02:22:25;101964.25;;;9.49;100.00
60852;BME280;48553;50.766;2.900;2024-02-04T02:25:27;101963.94;;;9.51;100.00
60852;BME280;48553;50.766;2.900;2024-02-04T02:28:27;101949.16;;;9.52;100.00
60852;BME280;48553;50.766;2.900;2024-02-04T02:31:28;101945.91;;;9.50;100.00
60852;BME280;48553;50.766;2.900;2024-02-04T02:34:28;101947.84;;;9.49;100.00
60852;BME280;48553;50.766;2.900;2024-02-04T02:37:59;101958.78;;;9.49;100.00
60852;BME280;48553;50.766;2.900;2024-02-04T02:41:04;101952.72;;;9.52;100.00
60852;BME280;48553;50.766;2.900;2024-02-04T02:44:07;101957.38;;;9.52;100.00
60852;BME280;48553;50.766;2.900;2024-02-04T02:47:09;101943.97;;;9.50;100.00
60852;BME280;48553;50.766;2.900;2024-02-04T02:50:10;101935.47;;;9.52;100.00
60852;BME280;48553;50.766;2.900;2024-02-04T02:53:11;101946.72;;;9.50;100.00
60852;BME280;48553;50.766;2.900;2024-02-04T02:56:11;101941.25;;;9.50;100.00
60852;BME280;48553;50.766;2.900;2024-02-04T02:59:12;101937.91;;;9.53;100.00
60852;BME280;48553;50.766;2.900;2024-02-04T03:02:12;101924.72;;;9.55;100.00
60852;BME280;48553;50.766;2.900;2024-02-04T03:05:16;101926.44;;;9.51;100.00
60852;BME280;48553;50.766;2.900;2024-02-04T03:08:17;101927.78;;;9.54;100.00
60852;BME280;48553;50.766;2.900;2024-02-04T03:11:17;101918.44;;;9.55;100.00
60852;BME280;48553;50.766;2.900;2024-02-04T03:14:18;101918.75;;;9.53;100.00
60852;BME280;48553;50.766;2.900;2024-02-04T03:17:18;101915.19;;;9.53;100.00
60852;BME280;48553;50.766;2.900;2024-02-04T03:20:21;101917.94;;;9.53;100.00
60852;BME280;48553;50.766;2.900;2024-02-04T03:23:21;101922.59;;;9.52;100.00
60852;BME280;48553;50.766;2.900;2024-02-04T03:26:21;101928.88;;;9.53;100.00
60852;BME280;48553;50.766;2.900;2024-02-04T03:29:22;101928.59;;;9.54;100.00
60852;BME280;48553;50.766;2.900;2024-02-04T03:32:22;101914.09;;;9.54;100.00
60852;BME280;48553;50.766;2.900;2024-02-04T03:35:22;101916.84;;;9.54;100.00
60852;BME280;48553;50.766;2.900;2024-02-04T03:38:23;101905.06;;;9.53;100.00
60852;BME280;48553;50.766;2.900;2024-02-04T03:41:23;101919.88;;;9.52;100.00
60852;BME280;48553;50.766;2.900;2024-02-04T03:44:24;101921.47;;;9.53;100.00
60852;BME280;48553;50.766;2.900;2024-02-04T03:47:24;101915.19;;;9.53;100.00
60852;BME280;48553;50.766;2.900;2024-02-04T03:50:24;101914.91;;;9.54;100.00
60852;BME280;48553;50.766;2.900;2024-02-04T03:53:25;101925.06;;;9.54;100.00
60852;BME280;48553;50.766;2.900;2024-02-04T03:56:25;101914.09;;;9.54;100.00
60852;BME280;48553;50.766;2.900;2024-02-04T03:59:26;101908.31;;;9.55;100.00
60852;BME280;48553;50.766;2.900;2024-02-04T04:02:26;101902.31;;;9.53;100.00
60852;BME280;48553;50.766;2.900;2024-02-04T04:05:27;101906.69;;;9.54;100.00
60852;BME280;48553;50.766;2.900;2024-02-04T04:08:27;101914.91;;;9.54;100.00
60852;BME280;48553;50.766;2.900;2024-02-04T04:11:27;101914.91;;;9.54;100.00
60852;BME280;48553;50.766;2.900;2024-02-04T04:14:28;101901.00;;;9.51;100.00
60852;BME280;48553;50.766;2.900;2024-02-04T04:17:28;101910.84;;;9.52;100.00
60852;BME280;48553;50.766;2.900;2024-02-04T04:20:29;101912.47;;;9.53;100.00
60852;BME280;48553;50.766;2.900;2024-02-04T04:23:29;101903.22;;;9.49;100.00
60852;BME280;48553;50.766;2.900;2024-02-04T04:26:30;101906.19;;;9.52;100.00
60852;BME280;48553;50.766;2.900;2024-02-04T04:29:31;101898.88;;;9.48;100.00
60852;BME280;48553;50.766;2.900;2024-02-04T04:32:32;101888.13;;;9.51;100.00
60852;BME280;48553;50.766;2.900;2024-02-04T04:35:32;101889.75;;;9.52;100.00
60852;BME280;48553;50.766;2.900;2024-02-04T04:38:33;101878.81;;;9.52;100.00
60852;BME280;48553;50.766;2.900;2024-02-04T04:41:33;101869.81;;;9.52;100.00
60852;BME280;48553;50.766;2.900;2024-02-04T04:44:33;101882.66;;;9.51;100.00
60852;BME280;48553;50.766;2.900;2024-02-04T04:47:34;101890.84;;;9.51;100.00
60852;BME280;48553;50.766;2.900;2024-02-04T04:50:35;101899.06;;;9.51;100.00
60852;BME280;48553;50.766;2.900;2024-02-04T04:53:36;101878.00;;;9.52;100.00
60852;BME280;48553;50.766;2.900;2024-02-04T04:56:40;101884.56;;;9.51;100.00
60852;BME280;48553;50.766;2.900;2024-02-04T04:59:41;101883.25;;;9.48;100.00
60852;BME280;48553;50.766;2.900;2024-02-04T05:02:41;101876.38;;;9.51;100.00
60852;BME280;48553;50.766;2.900;2024-02-04T05:05:44;101879.63;;;9.53;100.00
60852;BME280;48553;50.766;2.900;2024-02-04T05:08:45;101890.56;;;9.53;100.00
60852;BME280;48553;50.766;2.900;2024-02-04T05:11:45;101879.44;;;9.49;100.00
60852;BME280;48553;50.766;2.900;2024-02-04T05:14:46;101876.69;;;9.49;100.00
60852;BME280;48553;50.766;2.900;2024-02-04T05:17:46;101891.97;;;9.50;100.00
60852;BME280;48553;50.766;2.900;2024-02-04T05:20:46;101906.78;;;9.49;100.00
60852;BME280;48553;50.766;2.900;2024-02-04T05:23:48;101904.53;;;9.51;100.00
60852;BME280;48553;50.766;2.900;2024-02-04T05:26:49;101909.22;;;9.51;100.00
60852;BME280;48553;50.766;2.900;2024-02-04T05:29:49;101913.06;;;9.50;100.00
60852;BME280;48553;50.766;2.900;2024-02-04T05:32:49;101912.75;;;9.51;100.00
60852;BME280;48553;50.766;2.900;2024-02-04T05:35:50;101911.66;;;9.52;100.00
60852;BME280;48553;50.766;2.900;2024-02-04T05:38:50;101907.00;;;9.53;100.00
60852;BME280;48553;50.766;2.900;2024-02-04T05:41:51;101904.88;;;9.50;100.00
60852;BME280;48553;50.766;2.900;2024-02-04T05:44:51;101904.88;;;9.50;100.00
60852;BME280;48553;50.766;2.900;2024-02-04T05:47:51;101907.59;;;9.50;100.00
60852;BME280;48553;50.766;2.900;2024-02-04T05:50:52;101895.00;;;9.49;100.00
60852;BME280;48553;50.766;2.900;2024-02-04T05:53:52;101898.88;;;9.48;100.00
60852;BME280;48553;50.766;2.900;2024-02-04T05:56:53;101906.19;;;9.52;100.00
60852;BME280;48553;50.766;2.900;2024-02-04T05:59:53;101891.97;;;9.50;100.00
60852;BME280;48553;50.766;2.900;2024-02-04T06:02:55;101888.97;;;9.52;100.00
60852;BME280;48553;50.766;2.900;2024-02-04T06:05:56;101876.09;;;9.52;100.00
60852;BME280;48553;50.766;2.900;2024-02-04T06:08:57;101877.50;;;9.50;100.00
60852;BME280;48553;50.766;2.900;2024-02-04T06:11:58;101880.22;;;9.50;100.00
60852;BME280;48553;50.766;2.900;2024-02-04T06:14:59;101884.91;;;9.49;100.00
60852;BME280;48553;50.766;2.900;2024-02-04T06:17:59;101871.22;;;9.49;100.00
60852;BME280;48553;50.766;2.900;2024-02-04T06:20:59;101884.91;;;9.49;100.00
60852;BME280;48553;50.766;2.900;2024-02-04T06:24:00;101885.72;;;9.50;100.00
60852;BME280;48553;50.766;2.900;2024-02-04T06:27:00;101896.03;;;9.53;100.00
60852;BME280;48553;50.766;2.900;2024-02-04T06:30:01;101894.72;;;9.50;100.00
60852;BME280;48553;50.766;2.900;2024-02-04T06:33:01;101877.50;;;9.50;100.00
60852;BME280;48553;50.766;2.900;2024-02-04T06:36:03;101890.84;;;9.51;100.00
60852;BME280;48553;50.766;2.900;2024-02-04T06:39:03;101890.56;;;9.53;100.00
60852;BME280;48553;50.766;2.900;2024-02-04T06:42:04;101862.69;;;9.51;100.00
60852;BME280;48553;50.766;2.900;2024-02-04T06:45:04;101868.69;;;9.53;100.00
60852;BME280;48553;50.766;2.900;2024-02-04T06:48:05;101871.22;;;9.49;100.00
60852;BME280;48553;50.766;2.900;2024-02-04T06:51:06;101878.59;;;9.49;100.00
60852;BME280;48553;50.766;2.900;2024-02-04T06:54:06;101873.97;;;9.49;100.00
60852;BME280;48553;50.766;2.900;2024-02-04T06:57:06;101865.75;;;9.49;100.00
60852;BME280;48553;50.766;2.900;2024-02-04T07:00:07;101870.09;;;9.50;100.00
60852;BME280;48553;50.766;2.900;2024-02-04T07:03:11;101871.69;;;9.51;100.00
60852;BME280;48553;50.766;2.900;2024-02-04T07:06:12;101869.28;;;9.50;100.00
60852;BME280;48553;50.766;2.900;2024-02-04T07:09:12;101874.75;;;9.50;100.00
60852;BME280;48553;50.766;2.900;2024-02-04T07:12:12;101869.81;;;9.52;100.00
60852;BME280;48553;50.766;2.900;2024-02-04T07:15:13;101868.97;;;9.51;100.00
60852;BME280;48553;50.766;2.900;2024-02-04T07:18:13;101870.59;;;9.52;100.00
60852;BME280;48553;50.766;2.900;2024-02-04T07:21:14;101866.22;;;9.51;100.00
60852;BME280;48553;50.766;2.900;2024-02-04T07:24:14;101864.63;;;9.50;100.00
60852;BME280;48553;50.766;2.900;2024-02-04T07:27:15;101862.16;;;9.49;100.00
60852;BME280;48553;50.766;2.900;2024-02-04T07:30:15;101865.22;;;9.47;100.00
60852;BME280;48553;50.766;2.900;2024-02-04T07:33:16;101874.75;;;9.50;100.00
60852;BME280;48553;50.766;2.900;2024-02-04T07:36:16;101856.13;;;9.52;100.00
60852;BME280;48553;50.766;2.900;2024-02-04T07:39:17;101849.00;;;9.51;100.00
60852;BME280;48553;50.766;2.900;2024-02-04T07:42:17;101850.94;;;9.50;100.00
60852;BME280;48553;50.766;2.900;2024-02-04T07:45:18;101857.53;;;9.49;100.00
60852;BME280;48553;50.766;2.900;2024-02-04T07:48:18;101854.47;;;9.51;100.00
60852;BME280;48553;50.766;2.900;2024-02-04T07:51:19;101857.22;;;9.51;100.00
60852;BME280;48553;50.766;2.900;2024-02-04T07:54:20;101867.56;;;9.54;100.00
60852;BME280;48553;50.766;2.900;2024-02-04T07:57:20;101858.84;;;9.52;100.00
60852;BME280;48553;50.766;2.900;2024-02-04T08:00:21;101857.72;;;9.53;100.00
60852;BME280;48553;50.766;2.900;2024-02-04T08:03:21;101864.84;;;9.54;100.00
60852;BME280;48553;50.766;2.900;2024-02-04T08:06:22;101869.47;;;9.53;100.00
60852;BME280;48553;50.766;2.900;2024-02-04T08:09:22;101874.66;;;9.55;100.00
60852;BME280;48553;50.766;2.900;2024-02-04T08:12:23;101863.19;;;9.53;100.00
60852;BME280;48553;50.766;2.900;2024-02-04T08:15:23;101872.72;;;9.55;100.00
60852;BME280;48553;50.766;2.900;2024-02-04T08:18:24;101864.84;;;9.54;100.00
60852;BME280;48553;50.766;2.900;2024-02-04T08:21:25;101870.00;;;9.55;100.00
60852;BME280;48553;50.766;2.900;2024-02-04T08:24:25;101867.25;;;9.55;100.00
60852;BME280;48553;50.766;2.900;2024-02-04T08:27:25;101870.31;;;9.54;100.00
60852;BME280;48553;50.766;2.900;2024-02-04T08:30:26;101879.00;;;9.56;100.00
60852;BME280;48553;50.766;2.900;2024-02-04T08:33:26;101871.13;;;9.54;100.00
60852;BME280;48553;50.766;2.900;2024-02-04T08:36:27;101869.69;;;9.57;100.00
60852;BME280;48553;50.766;2.900;2024-02-04T08:39:27;101872.16;;;9.58;100.00
60852;BME280;48553;50.766;2.900;2024-02-04T08:42:30;101878.72;;;9.57;100.00
60852;BME280;48553;50.766;2.900;2024-02-04T08:45:30;101891.59;;;9.57;100.00
60852;BME280;48553;50.766;2.900;2024-02-04T08:48:30;101887.72;;;9.58;100.00
60852;BME280;48553;50.766;2.900;2024-02-04T08:51:31;101892.91;;;9.59;100.00
60852;BME280;48553;50.766;2.900;2024-02-04T08:54:31;101885.50;;;9.60;100.00
60852;BME280;48553;50.766;2.900;2024-02-04T08:57:32;101891.78;;;9.60;100.00
60852;BME280;48553;50.766;2.900;2024-02-04T09:00:32;101881.16;;;9.59;100.00
60852;BME280;48553;50.766;2.900;2024-02-04T09:03:33;101877.63;;;9.58;100.00
60852;BME280;48553;50.766;2.900;2024-02-04T09:06:34;101886.31;;;9.60;100.00
60852;BME280;48553;50.766;2.900;2024-02-04T09:09:34;101879.75;;;9.61;100.00
60852;BME280;48553;50.766;2.900;2024-02-04T09:12:35;101884.09;;;9.62;100.00
60852;BME280;48553;50.766;2.900;2024-02-04T09:15:35;101885.72;;;9.64;100.00
60852;BME280;48553;50.766;2.900;2024-02-04T09:18:36;101888.75;;;9.62;100.00
60852;BME280;48553;50.766;2.900;2024-02-04T09:21:37;101878.94;;;9.61;100.00
60852;BME280;48553;50.766;2.900;2024-02-04T09:24:37;101872.34;;;9.62;100.00
60852;BME280;48553;50.766;2.900;2024-02-04T09:27:37;101886.84;;;9.62;100.00
60852;BME280;48553;50.766;2.900;2024-02-04T09:30:38;101876.91;;;9.67;100.00
60852;BME280;48553;50.766;2.900;2024-02-04T09:33:38;101872.56;;;9.66;100.00
60852;BME280;48553;50.766;2.900;2024-02-04T09:36:40;101871.25;;;9.63;100.00
60852;BME280;48553;50.766;2.900;2024-02-04T09:39:41;101871.75;;;9.65;100.00
60852;BME280;48553;50.766;2.900;2024-02-04T09:42:41;101881.81;;;9.70;100.00
60852;BME280;48553;50.766;2.900;2024-02-04T09:45:42;101872.75;;;9.69;100.00
60852;BME280;48553;50.766;2.900;2024-02-04T09:48:44;101877.66;;;9.72;100.00
60852;BME280;48553;50.766;2.900;2024-02-04T09:51:45;101880.06;;;9.74;100.00
60852;BME280;48553;50.766;2.900;2024-02-04T09:54:49;101880.91;;;9.74;100.00
60852;BME280;48553;50.766;2.900;2024-02-04T09:57:50;101888.78;;;9.76;100.00
60852;BME280;48553;50.766;2.900;2024-02-04T10:00:51;101878.34;;;9.78;100.00
60852;BME280;48553;50.766;2.900;2024-02-04T10:03:51;101871.78;;;9.79;100.00
60852;BME280;48553;50.766;2.900;2024-02-04T10:06:52;101872.25;;;9.81;100.00
60852;BME280;48553;50.766;2.900;2024-02-04T10:09:52;101879.38;;;9.82;100.00
60852;BME280;48553;50.766;2.900;2024-02-04T10:12:52;101874.41;;;9.84;100.00
60852;BME280;48553;50.766;2.900;2024-02-04T10:15:54;101877.16;;;9.84;100.00
60852;BME280;48553;50.766;2.900;2024-02-04T10:18:55;101866.47;;;9.82;100.00
60852;BME280;48553;50.766;2.900;2024-02-04T10:22:03;101876.34;;;9.83;100.00
60852;BME280;48553;50.766;2.900;2024-02-04T10:25:08;101873.78;;;9.87;100.00
60852;BME280;48553;50.766;2.900;2024-02-04T10:28:08;101882.00;;;9.87;100.00
60852;BME280;48553;50.766;2.900;2024-02-04T10:31:09;101886.06;;;9.90;100.00
60852;BME280;48553;50.766;2.900;2024-02-04T10:34:12;101894.59;;;9.88;100.00
60852;BME280;48553;50.766;2.900;2024-02-04T10:37:12;101894.28;;;9.90;100.00
60852;BME280;48553;50.766;2.900;2024-02-04T10:40:13;101888.78;;;9.90;100.00
60852;BME280;48553;50.766;2.900;2024-02-04T10:43:14;101898.34;;;9.92;100.00
60852;BME280;48553;50.766;2.900;2024-02-04T10:46:23;101897.22;;;9.93;100.00
60852;BME280;48553;50.766;2.900;2024-02-04T10:49:26;101890.63;;;9.94;100.00
60852;BME280;48553;50.766;2.900;2024-02-04T10:52:27;101895.31;;;9.94;100.00
60852;BME280;48553;50.766;2.900;2024-02-04T10:55:30;101895.91;;;9.91;100.00
60852;BME280;48553;50.766;2.900;2024-02-04T10:58:31;101899.16;;;9.93;100.00
60852;BME280;48553;50.766;2.900;2024-02-04T11:01:33;101884.34;;;9.94;100.00
60852;BME280;48553;50.766;2.900;2024-02-04T11:04:34;101883.53;;;9.93;100.00
60852;BME280;48553;50.766;2.900;2024-02-04T11:07:35;101886.28;;;9.93;100.00
60852;BME280;48553;50.766;2.900;2024-02-04T11:10:37;101882.13;;;9.96;100.00
60852;BME280;48553;50.766;2.900;2024-02-04T11:13:42;101875.84;;;9.95;100.00
60852;BME280;48553;50.766;2.900;2024-02-04T11:26:40;101871.38;;;9.99;100.00
60852;BME280;48553;50.766;2.900;2024-02-04T11:29:41;101872.19;;;10.00;100.00
60852;BME280;48553;50.766;2.900;2024-02-04T11:32:42;101868.31;;;10.01;100.00
60852;BME280;48553;50.766;2.900;2024-02-04T11:35:42;101867.22;;;10.02;100.00
60852;BME280;48553;50.766;2.900;2024-02-04T11:38:43;101870.75;;;10.02;100.00
60852;BME280;48553;50.766;2.900;2024-02-04T11:41:47;101860.09;;;10.01;100.00
60852;BME280;48553;50.766;2.900;2024-02-04T11:44:48;101864.78;;;10.00;100.00
60852;BME280;48553;50.766;2.900;2024-02-04T11:48:00;101856.03;;;9.98;100.00
60852;BME280;48553;50.766;2.900;2024-02-04T11:51:00;101859.00;;;10.02;100.00
60852;BME280;48553;50.766;2.900;2024-02-04T11:54:01;101848.22;;;10.06;100.00
60852;BME280;48553;50.766;2.900;2024-02-04T11:57:05;101853.72;;;10.06;100.00
60852;BME280;48553;50.766;2.900;2024-02-04T12:00:07;101838.91;;;10.07;100.00
60852;BME280;48553;50.766;2.900;2024-02-04T12:03:10;101839.72;;;10.07;100.00
60852;BME280;48553;50.766;2.900;2024-02-04T12:06:11;101840.53;;;10.08;100.00
60852;BME280;48553;50.766;2.900;2024-02-04T12:09:18;101842.16;;;10.09;100.00
60852;BME280;48553;50.766;2.900;2024-02-04T12:12:19;101817.50;;;10.09;100.00
60852;BME280;48553;50.766;2.900;2024-02-04T12:15:20;101828.47;;;10.09;100.00
60852;BME280;48553;50.766;2.900;2024-02-04T12:18:21;101816.69;;;10.08;100.00
60852;BME280;48553;50.766;2.900;2024-02-04T12:21:21;101810.59;;;10.11;100.00
60852;BME280;48553;50.766;2.900;2024-02-04T12:24:22;101813.13;;;10.08;100.00
60852;BME280;48553;50.766;2.900;2024-02-04T12:27:22;101811.19;;;10.08;100.00
60852;BME280;48553;50.766;2.900;2024-02-04T12:30:23;101810.09;;;10.09;100.00
60852;BME280;48553;50.766;2.900;2024-02-04T12:33:23;101815.56;;;10.09;100.00
60852;BME280;48553;50.766;2.900;2024-02-04T12:36:26;101816.38;;;10.10;100.00
60852;BME280;48553;50.766;2.900;2024-02-04T12:39:28;101822.66;;;10.10;100.00
60852;BME280;48553;50.766;2.900;2024-02-04T12:42:28;101813.00;;;10.13;100.00
60852;BME280;48553;50.766;2.900;2024-02-04T12:45:29;101817.41;;;10.14;100.00
60852;BME280;48553;50.766;2.900;2024-02-04T12:48:29;101814.66;;;10.14;100.00
60852;BME280;48553;50.766;2.900;2024-02-04T12:51:31;101810.28;;;10.13;100.00
60852;BME280;48553;50.766;2.900;2024-02-04T12:54:43;101812.72;;;10.14;100.00
60852;BME280;48553;50.766;2.900;2024-02-04T12:57:44;101791.94;;;10.13;100.00
60852;BME280;48553;50.766;2.900;2024-02-04T13:00:44;101794.69;;;10.13;100.00
60852;BME280;48553;50.766;2.900;2024-02-04T13:03:45;101787.78;;;10.16;100.00
60852;BME280;48553;50.766;2.900;2024-02-04T13:06:46;101794.84;;;10.17;100.00
60852;BME280;48553;50.766;2.900;2024-02-04T13:09:58;101784.22;;;10.15;100.00
60852;BME280;48553;50.766;2.900;2024-02-04T13:13:02;101790.81;;;10.14;100.00
60852;BME280;48553;50.766;2.900;2024-02-04T13:16:04;101779.84;;;10.14;100.00
60852;BME280;48553;50.766;2.900;2024-02-04T13:19:05;101780.16;;;10.13;100.00
60852;BME280;48553;50.766;2.900;2024-02-04T13:22:06;101782.88;;;10.13;100.00
60852;BME280;48553;50.766;2.900;2024-02-04T13:25:07;101782.88;;;10.13;100.00
60852;BME280;48553;50.766;2.900;2024-02-04T13:28:07;101786.25;;;10.10;100.00
60852;BME280;48553;50.766;2.900;2024-02-04T13:31:08;101779.66;;;10.11;100.00
60852;BME280;48553;50.766;2.900;2024-02-04T13:34:08;101786.75;;;10.12;100.00
60852;BME280;48553;50.766;2.900;2024-02-04T13:37:09;101759.66;;;10.10;100.00
60852;BME280;48553;50.766;2.900;2024-02-04T13:40:09;101760.50;;;10.11;100.00
60852;BME280;48553;50.766;2.900;2024-02-04T13:43:10;101755.03;;;10.11;100.00
60852;BME280;48553;50.766;2.900;2024-02-04T13:46:10;101751.16;;;10.12;100.00
60852;BME280;48553;50.766;2.900;2024-02-04T13:49:11;101745.16;;;10.10;100.00
60852;BME280;48553;50.766;2.900;2024-02-04T13:52:14;101734.72;;;10.12;100.00
60852;BME280;48553;50.766;2.900;2024-02-04T13:55:15;101744.53;;;10.13;100.00
60852;BME280;48553;50.766;2.900;2024-02-04T13:58:15;101741.78;;;10.13;100.00
60852;BME280;48553;50.766;2.900;2024-02-04T14:01:18;101730.38;;;10.11;100.00
60852;BME280;48553;50.766;2.900;2024-02-04T14:04:20;101731.69;;;10.13;100.00
60852;BME280;48553;50.766;2.900;2024-02-04T14:07:21;101738.25;;;10.12;100.00
60852;BME280;48553;50.766;2.900;2024-02-04T14:10:22;101739.06;;;10.13;100.00
60852;BME280;48553;50.766;2.900;2024-02-04T14:13:22;101725.69;;;10.11;100.00
60852;BME280;48553;50.766;2.900;2024-02-04T14:16:22;101733.09;;;10.11;100.00
60852;BME280;48553;50.766;2.900;2024-02-04T14:19:23;101730.03;;;10.12;100.00
60852;BME280;48553;50.766;2.900;2024-02-04T14:22:24;101735.00;;;10.10;100.00
60852;BME280;48553;50.766;2.900;2024-02-04T14:25:24;101743.72;;;10.12;100.00
60852;BME280;48553;50.766;2.900;2024-02-04T14:28:24;101734.72;;;10.12;100.00
60852;BME280;48553;50.766;2.900;2024-02-04T14:31:25;101732.28;;;10.10;100.00
60852;BME280;48553;50.766;2.900;2024-02-04T14:34:25;101729.53;;;10.10;100.00
60852;BME280;48553;50.766;2.900;2024-02-04T14:37:27;101735.22;;;10.14;100.00
60852;BME280;48553;50.766;2.900;2024-02-04T14:40:28;101732.28;;;10.10;100.00
60852;BME280;48553;50.766;2.900;2024-02-04T14:43:30;101728.72;;;10.10;100.00
60852;BME280;48553;50.766;2.900;2024-02-04T14:46:30;101728.44;;;10.11;100.00
60852;BME280;48553;50.766;2.900;2024-02-04T14:49:31;101722.63;;;10.13;100.00
60852;BME280;48553;50.766;2.900;2024-02-04T14:52:31;101718.28;;;10.12;100.00
60852;BME280;48553;50.766;2.900;2024-02-04T14:55:32;101724.88;;;10.11;100.00
60852;BME280;48553;50.766;2.900;2024-02-04T14:58:35;101718.28;;;10.12;100.00
60852;BME280;48553;50.766;2.900;2024-02-04T15:01:37;101715.53;;;10.12;100.00
60852;BME280;48553;50.766;2.900;2024-02-04T15:04:38;101733.19;;;10.06;100.00
60852;BME280;48553;50.766;2.900;2024-02-04T15:07:39;101713.22;;;10.05;100.00
60852;BME280;48553;50.766;2.900;2024-02-04T15:10:39;101713.22;;;10.05;100.00
60852;BME280;48553;50.766;2.900;2024-02-04T15:13:40;101695.84;;;10.10;100.00
60852;BME280;48553;50.766;2.900;2024-02-04T15:16:42;101697.78;;;10.09;100.00
60852;BME280;48553;50.766;2.900;2024-02-04T15:19:43;101702.97;;;10.11;100.00
60852;BME280;48553;50.766;2.900;2024-02-04T15:22:44;101696.50;;;10.07;100.00
60852;BME280;48553;50.766;2.900;2024-02-04T15:25:45;101693.13;;;10.10;100.00
60852;BME280;48553;50.766;2.900;2024-02-04T15:28:45;101699.09;;;10.12;100.00
60852;BME280;48553;50.766;2.900;2024-02-04T15:31:48;101698.59;;;10.10;100.00
60852;BME280;48553;50.766;2.900;2024-02-04T15:34:52;101703.44;;;10.13;100.00
60852;BME280;48553;50.766;2.900;2024-02-04T15:37:52;101698.31;;;10.11;100.00
60852;BME280;48553;50.766;2.900;2024-02-04T15:40:53;101704.06;;;10.10;100.00
60852;BME280;48553;50.766;2.900;2024-02-04T15:43:53;101711.66;;;10.13;100.00
60852;BME280;48553;50.766;2.900;2024-02-04T15:46:54;101702.97;;;10.11;100.00
60852;BME280;48553;50.766;2.900;2024-02-04T15:49:54;101710.88;;;10.12;100.00
60852;BME280;48553;50.766;2.900;2024-02-04T15:52:55;101702.97;;;10.11;100.00
60852;BME280;48553;50.766;2.900;2024-02-04T15:55:56;101715.03;;;10.10;100.00